Data for 08/07/2009

Time Sea-Level Adjusted Pressure Absolute Pressure Temperature Relative Humidity Dew Point   
(mb) (inHg) (mb) (inHg) (C) (F) (%) (C) (F)
00:05 1013 29.91 842 24.86 12.9 55.1 86 10.6 51
00:10 1013 29.91 842 24.86 12.9 55.3 87 10.8 51.4
00:15 1013 29.91 842 24.86 12.9 55.2 85 10.4 50.8
00:20 1013 29.91 842 24.86 12.9 55.3 84 10.3 50.6
00:25 1013 29.91 843 24.89 13 55.4 83 10.3 50.5
00:30 1013 29.91 843 24.89 13 55.3 85 10.4 50.8
00:35 1013 29.91 842 24.86 12.8 55.1 85 10.4 50.7
00:40 1013 29.91 842 24.86 12.7 54.8 87 10.6 51
00:45 1013 29.91 842 24.86 12.7 54.9 84 10.1 50.1
00:50 1013 29.91 842 24.86 13 55.3 84 10.3 50.5
00:55 1013 29.91 843 24.89 13.1 55.7 80 9.9 49.8
01:00 1013 29.91 843 24.89 13.4 56.1 80 10 49.9
01:05 1013 29.91 843 24.89 13.5 56.4 79 10 50
01:10 1014 29.94 843 24.89 13.6 56.5 80 10.2 50.4
01:15 1014 29.94 843 24.89 13.5 56.4 81 10.4 50.7
01:20 1014 29.94 844 24.92 13.4 56.1 83 10.6 51
01:25 1014 29.94 843 24.89 13.1 55.5 87 11 51.9
01:30 1013 29.91 842 24.86 12.6 54.6 89 10.9 51.6
01:35 1012 29.88 842 24.86 12.3 54.2 91 10.9 51.7
01:40 1012 29.88 842 24.86 12.5 54.4 90 10.9 51.7
01:45 1013 29.91 842 24.86 12.7 54.9 88 10.7 51.3
01:50 1013 29.91 842 24.86 12.8 55.1 87 10.8 51.4
01:55 1013 29.91 842 24.86 13 55.3 86 10.7 51.2
02:00 1013 29.91 843 24.89 13.2 55.7 84 10.6 51.1
02:05 1014 29.94 843 24.89 13.4 56 83 10.5 51
02:10 1014 29.94 843 24.89 13.4 56.1 85 10.9 51.6
02:15 1014 29.94 843 24.89 13.3 55.9 84 10.6 51.1
02:20 1014 29.94 843 24.89 13.4 56.1 84 10.8 51.4
02:25 1014 29.94 843 24.89 13.3 55.9 87 11.1 52
02:30 1014 29.94 843 24.89 13 55.4 90 11.4 52.5
02:35 1014 29.94 843 24.89 12.8 55 92 11.4 52.6
02:40 1014 29.94 843 24.89 12.6 54.6 92 11.3 52.4
02:45 1013 29.91 842 24.86 12.4 54.3 93 11.3 52.4
02:50 1013 29.91 842 24.86 12.4 54.3 92 11.2 52.1
02:55 1013 29.91 842 24.86 12.4 54.4 92 11.2 52.2
03:00 1013 29.91 842 24.86 12.4 54.2 92 11.1 52
03:05 1013 29.91 842 24.86 12.2 54 93 11.2 52.1
03:10 1013 29.91 842 24.86 12.1 53.8 94 11.1 52
03:15 1013 29.91 842 24.86 12.1 53.9 93 11 51.9
03:20 1013 29.91 842 24.86 12.2 53.9 88 10.3 50.5
03:25 1013 29.91 842 24.86 12.5 54.5 90 11 51.8
03:30 1013 29.91 842 24.86 12.5 54.5 93 11.4 52.4
03:35 1013 29.91 842 24.86 12.3 54.2 93 11.3 52.3
03:40 1013 29.91 843 24.89 12.2 54 91 10.8 51.4
03:45 1013 29.91 843 24.89 12.5 54.6 88 10.7 51.2
03:50 1013 29.91 842 24.86 12.7 54.9 83 10 50
03:55 1013 29.91 843 24.89 12.7 54.9 89 11 51.7
04:00 1014 29.94 843 24.89 12.4 54.3 92 11.1 52.1
04:05 1014 29.94 843 24.89 12.2 54 92 11 51.8
04:10 1014 29.94 843 24.89 12 53.6 94 11 51.8
04:15 1014 29.94 843 24.89 12 53.6 95 11.2 52.1
04:20 1014 29.94 843 24.89 11.9 53.3 96 11.2 52.1
04:25 1013 29.91 843 24.89 11.7 53 96 11.1 52
04:30 1013 29.91 843 24.89 11.6 52.9 96 11.1 51.9
04:35 1013 29.91 843 24.89 11.5 52.6 97 11 51.8
04:40 1013 29.91 843 24.89 11.4 52.5 97 10.9 51.7
04:45 1013 29.91 843 24.89 11.4 52.4 97 10.9 51.6
04:50 1013 29.91 842 24.86 11.3 52.3 97 10.8 51.5
04:55 1013 29.91 842 24.86 11.2 52.2 97 10.8 51.4
05:00 1013 29.91 842 24.86 11.2 52.1 97 10.7 51.3
05:05 1013 29.91 842 24.86 11.2 52.2 97 10.8 51.4
05:10 1013 29.91 842 24.86 11.3 52.3 97 10.8 51.5
05:15 1013 29.91 842 24.86 11.2 52.2 97 10.8 51.4
05:20 1013 29.91 843 24.89 11.2 52.2 97 10.7 51.3
05:25 1013 29.91 843 24.89 11.2 52.1 96 10.6 51.1
05:30 1013 29.91 843 24.89 11 51.7 96 10.3 50.5
05:35 1013 29.91 843 24.89 10.7 51.3 95 10 50
05:40 1014 29.94 843 24.89 10.7 51.2 95 10 49.9
05:45 1014 29.94 843 24.89 10.7 51.3 94 9.9 49.7
05:50 1014 29.94 843 24.89 10.7 51.3 94 9.8 49.6
05:55 1014 29.94 843 24.89 10.5 51 93 9.5 49.1
06:00 1014 29.94 843 24.89 10.4 50.8 93 9.3 48.7
06:05 1014 29.94 843 24.89 10.5 51 92 9.3 48.7
06:10 1014 29.94 843 24.89 10.6 51.1 91 9.3 48.7
06:15 1014 29.94 843 24.89 10.7 51.2 90 9.1 48.5
06:20 1014 29.94 843 24.89 10.9 51.6 89 9.2 48.6
06:25 1014 29.94 843 24.89 10.9 51.6 89 9.2 48.5
06:30 1014 29.94 843 24.89 11.1 52 88 9.2 48.5
06:35 1014 29.94 843 24.89 11 51.9 88 9.1 48.3
06:40 1014 29.94 843 24.89 11 51.8 88 9 48.3
06:45 1014 29.94 843 24.89 11 51.8 89 9.2 48.6
06:50 1014 29.94 843 24.89 10.9 51.6 89 9.2 48.6
06:55 1014 29.94 843 24.89 10.8 51.4 90 9.2 48.6
07:00 1014 29.94 843 24.89 10.6 51.2 91 9.2 48.5
07:05 1014 29.94 843 24.89 10.5 50.8 91 9.1 48.4
07:10 1014 29.94 843 24.89 10.5 50.8 91 9 48.2
07:15 1014 29.94 843 24.89 10.5 50.9 90 9 48.2
07:20 1014 29.94 843 24.89 10.5 50.9 90 9 48.2
07:25 1014 29.94 843 24.89 10.7 51.3 90 9.1 48.5
07:30 1014 29.94 843 24.89 10.9 51.6 89 9.2 48.6
07:35 1014 29.94 843 24.89 11 51.8 88 9.2 48.5
07:40 1014 29.94 843 24.89 11.4 52.6 87 9.4 48.9
07:45 1014 29.94 843 24.89 11.7 53 88 9.8 49.7
07:50 1014 29.94 844 24.92 11.8 53.3 86 9.7 49.4
07:55 1014 29.94 844 24.92 11.8 53.2 86 9.5 49.2
08:00 1014 29.94 844 24.92 11.9 53.5 86 9.8 49.6
08:05 1015 29.97 844 24.92 12.3 54.1 85 9.8 49.6
08:10 1015 29.97 844 24.92 12.5 54.4 85 10.1 50.1
08:15 1015 29.97 844 24.92 12.6 54.7 85 10.2 50.4
08:20 1015 29.97 844 24.92 12.8 55 86 10.5 50.9
08:25 1015 29.97 844 24.92 12.8 55.1 83 10 50
08:30 1014 29.94 844 24.92 13 55.3 84 10.3 50.6
08:35 1014 29.94 844 24.92 13.9 57 78 10.2 50.4
08:40 1015 29.97 844 24.92 13.8 56.8 82 10.8 51.4
08:45 1015 29.97 844 24.92 14.1 57.4 80 10.8 51.4
08:50 1015 29.97 844 24.92 14.4 58 76 10.3 50.5
08:55 1015 29.97 844 24.92 14.5 58.2 76 10.4 50.8
09:00 1014 29.94 844 24.92 15 59 74 10.4 50.7
09:05 1014 29.94 844 24.92 15.4 59.7 75 11 51.8
09:10 1015 29.97 844 24.92 15.7 60.3 74 11.2 52.1
09:15 1015 29.97 844 24.92 15.4 59.7 75 11.1 52
09:20 1015 29.97 844 24.92 14.8 58.7 76 10.6 51.1
09:25 1015 29.97 844 24.92 15.1 59.1 75 10.6 51.1
09:30 1015 29.97 844 24.92 15.2 59.4 75 10.9 51.6
09:35 1015 29.97 844 24.92 15.5 59.8 72 10.4 50.7
09:40 1015 29.97 844 24.92 16.3 61.4 69 10.7 51.2
09:45 1015 29.97 844 24.92 16.7 62.1 69 11 51.9
09:50 1015 29.97 844 24.92 17.2 62.9 65 10.7 51.2
09:55 1015 29.97 844 24.92 17.7 63.8 64 10.8 51.4
10:00 1015 29.97 844 24.92 17.9 64.1 64 10.9 51.7
10:05 1015 29.97 844 24.92 17.4 63.3 65 10.9 51.7
10:10 1015 29.97 844 24.92 17.4 63.3 61 10 50
10:15 1015 29.97 844 24.92 17.2 62.9 62 10 50
10:20 1015 29.97 844 24.92 17.1 62.8 65 10.7 51.2
10:25 1015 29.97 844 24.92 17.6 63.6 64 10.9 51.5
10:30 1015 29.97 844 24.92 16.9 62.5 68 11.1 52
10:35 1015 29.97 844 24.92 17.5 63.5 64 10.7 51.2
10:40 1015 29.97 844 24.92 17.4 63.3 67 11.2 52.2
10:45 1015 29.97 844 24.92 17.9 64.2 61 10.4 50.8
10:50 1015 29.97 844 24.92 18.7 65.6 59 10.6 51.2
10:55 1015 29.97 844 24.92 19.3 66.7 57 10.7 51.2
11:00 1015 29.97 844 24.92 18.7 65.7 59 10.5 51
11:05 1015 29.97 844 24.92 18.5 65.3 63 11.4 52.6
11:10 1015 29.97 844 24.92 19.1 66.4 60 11.3 52.4
11:15 1015 29.97 844 24.92 17.8 64 63 10.8 51.4
11:20 1015 29.97 844 24.92 17.7 63.9 61 10.2 50.4
11:25 1015 29.97 844 24.92 18.7 65.7 60 10.8 51.4
11:30 1015 29.97 844 24.92 18.5 65.2 58 10.3 50.5
11:35 1015 29.97 844 24.92 19.3 66.8 55 10.2 50.3
11:40 1015 29.97 844 24.92 19.6 67.2 54 10.1 50.2
11:45 1015 29.97 844 24.92 20.2 68.3 51 9.8 49.7
11:50 1015 29.97 844 24.92 20.2 68.4 48 8.9 48.1
11:55 1015 29.97 844 24.92 20 68 45 7.8 46.1
12:00 1015 29.97 844 24.92 20.5 68.8 47 8.8 47.9
12:05 1015 29.97 844 24.92 21 69.8 46 8.9 48.1
12:10 1015 29.97 844 24.92 21.2 70.1 44 8.5 47.3
12:15 1015 29.97 844 24.92 21.3 70.4 42 8.1 46.6
12:20 1015 29.97 844 24.92 21.7 71 41 8.2 46.7
12:25 1015 29.97 844 24.92 20.9 69.7 44 8.3 46.9
12:30 1015 29.97 844 24.92 21 69.8 45 8.7 47.6
12:35 1015 29.97 844 24.92 21.3 70.3 41 7.6 45.7
12:40 1015 29.97 844 24.92 21.5 70.6 39 7.1 44.7
12:45 1015 29.97 844 24.92 21.3 70.3 45 8.9 48.1
12:50 1015 29.97 844 24.92 20.9 69.6 43 8.2 46.7
12:55 1014 29.94 844 24.92 21.5 70.8 40 7.4 45.3
13:00 1014 29.94 844 24.92 22.1 71.8 38 7.3 45.2
13:05 1014 29.94 844 24.92 22.8 73.1 37 7.8 46
13:10 1014 29.94 844 24.92 22.3 72.1 39 7.7 45.9
13:15 1014 29.94 843 24.89 22 71.6 39 7.5 45.5
13:20 1014 29.94 843 24.89 21.3 70.4 40 7.3 45.2
13:25 1014 29.94 843 24.89 22.7 72.9 35 6.9 44.3
13:30 1014 29.94 843 24.89 22.9 73.3 38 8.2 46.7
13:35 1014 29.94 843 24.89 22.4 72.3 36 7 44.6
13:40 1014 29.94 843 24.89 22.1 71.9 39 7.8 46.1
13:45 1014 29.94 843 24.89 22.5 72.5 39 7.9 46.2
13:50 1014 29.94 843 24.89 22.1 71.7 41 8.5 47.2
13:55 1014 29.94 843 24.89 21.9 71.4 41 8 46.5
14:00 1014 29.94 843 24.89 22.2 71.9 38 7.4 45.4
14:05 1014 29.94 843 24.89 21.9 71.4 39 7.6 45.8
14:10 1014 29.94 843 24.89 21.6 71 38 7 44.6
14:15 1014 29.94 843 24.89 22.2 72 36 6.6 43.9
14:20 1014 29.94 843 24.89 22.1 71.8 34 5.6 42.2
14:25 1014 29.94 843 24.89 21.7 71.1 36 6.1 43
14:30 1014 29.94 843 24.89 22.8 73.1 32 5.5 41.9
14:35 1014 29.94 843 24.89 22.8 73.1 33 6 42.8
14:40 1014 29.94 843 24.89 22.7 72.8 29 4.2 39.5
14:45 1014 29.94 843 24.89 23.7 74.6 28 4.5 40.1
14:50 1014 29.94 843 24.89 23.7 74.6 27 3.9 39
14:55 1014 29.94 843 24.89 23 73.5 29 4.4 40
15:00 1014 29.94 843 24.89 23.4 74.1 27 3.6 38.6
15:05 1014 29.94 843 24.89 23.5 74.2 27 3.6 38.5
15:10 1014 29.94 843 24.89 23.4 74.1 25 2.5 36.6
15:15 1014 29.94 843 24.89 23.3 73.9 26 3.1 37.5
15:20 1014 29.94 843 24.89 23.1 73.6 27 3.3 37.9
15:25 1014 29.94 843 24.89 22.3 72.1 28 3.2 37.7
15:30 1014 29.94 843 24.89 22.2 71.9 29 3.5 38.2
15:35 1014 29.94 843 24.89 22.7 72.9 28 3.6 38.5
15:40 1014 29.94 843 24.89 22.9 73.2 29 4.2 39.6
15:45 1014 29.94 843 24.89 22.1 71.7 30 3.9 39.1
15:50 1014 29.94 843 24.89 21.7 71.1 28 2.7 36.8
15:55 1014 29.94 843 24.89 21.9 71.3 29 3.4 38.2
16:00 1014 29.94 843 24.89 22 71.5 27 2.3 36.2
16:05 1014 29.94 843 24.89 22.7 72.8 27 2.8 37.1
16:10 1014 29.94 843 24.89 23.5 74.3 24 2 35.7
16:15 1014 29.94 843 24.89 23.7 74.6 25 2.8 37.1
16:20 1014 29.94 843 24.89 23.9 75.1 23 1.6 34.8
16:25 1014 29.94 843 24.89 23.3 74 24 1.8 35.3
16:30 1014 29.94 843 24.89 22.9 73.1 23 1.1 34
16:35 1014 29.94 843 24.89 23.4 74 24 1.7 35
16:40 1014 29.94 843 24.89 23.3 73.9 23 0.9 33.7
16:45 1014 29.94 843 24.89 22.3 72.1 24 1 33.8
16:50 1014 29.94 843 24.89 22.5 72.4 22 -0 31.9
16:55 1014 29.94 843 24.89 22.1 71.7 24 1 33.8
17:00 1014 29.94 843 24.89 22.2 71.9 24 0.7 33.3
17:05 1014 29.94 843 24.89 21.5 70.6 27 1.9 35.5
17:10 1014 29.94 843 24.89 21.3 70.4 25 0.9 33.6
17:15 1014 29.94 843 24.89 21.1 70 26 1 33.9
17:20 1014 29.94 843 24.89 21 69.8 27 1.5 34.7
17:25 1014 29.94 843 24.89 21.1 69.9 28 2 35.6
17:30 1014 29.94 843 24.89 21 69.7 28 1.9 35.5
17:35 1014 29.94 843 24.89 20.8 69.4 28 1.9 35.5
17:40 1014 29.94 843 24.89 21.5 70.7 27 1.7 35
17:45 1014 29.94 843 24.89 21.6 70.9 27 1.9 35.5
17:50 1014 29.94 843 24.89 21.4 70.4 27 1.7 35.1
17:55 1014 29.94 843 24.89 20.7 69.2 28 1.8 35.2
18:00 1014 29.94 843 24.89 20.4 68.7 28 1.6 35
18:05 1014 29.94 843 24.89 20.5 68.8 28 1.6 34.8
18:10 1014 29.94 843 24.89 20.8 69.4 28 1.8 35.3
18:15 1014 29.94 843 24.89 20.9 69.6 28 1.7 35
18:20 1014 29.94 844 24.92 20.3 68.6 28 1.4 34.6
18:25 1014 29.94 844 24.92 20.2 68.4 30 2.1 35.8
18:30 1014 29.94 844 24.92 20.2 68.3 30 2.1 35.7
18:35 1014 29.94 844 24.92 20.2 68.3 29 1.9 35.5
18:40 1015 29.97 844 24.92 20.1 68.1 30 1.9 35.4
18:45 1015 29.97 844 24.92 20.2 68.3 30 2.4 36.2
18:50 1015 29.97 844 24.92 20.4 68.8 33 3.7 38.6
18:55 1015 29.97 844 24.92 20.2 68.4 34 3.9 39
19:00 1015 29.97 844 24.92 20.3 68.5 34 3.9 39
19:05 1015 29.97 844 24.92 20.1 68.1 36 4.5 40.1
19:10 1015 29.97 844 24.92 19.9 67.7 40 6 42.7
19:15 1015 29.97 844 24.92 19.7 67.4 39 5.4 41.8
19:20 1015 29.97 844 24.92 18.9 66.1 44 6.6 43.8
19:25 1015 29.97 844 24.92 18.3 65 45 6.2 43.1
19:30 1015 29.97 844 24.92 18.1 64.5 47 6.8 44.2
19:35 1015 29.97 845 24.95 17.8 64.1 54 8.4 47.2
19:40 1016 30 845 24.95 17.3 63.1 56 8.4 47.1
19:45 1016 30 845 24.95 17.1 62.7 58 8.7 47.7
19:50 1016 30 845 24.95 16.6 61.9 61 9.1 48.5
19:55 1016 30 845 24.95 16.1 61.1 63 9.2 48.6
20:00 1016 30 845 24.95 15.8 60.4 64 9.1 48.3
20:05 1016 30 845 24.95 15.5 59.8 65 9 48.1
20:10 1016 30 845 24.95 15.2 59.4 66 9 48.1
20:15 1016 30 845 24.95 15 59 67 9.1 48.3
20:20 1016 30 846 24.98 14.8 58.6 68 9 48.1
20:25 1016 30 846 24.98 14.7 58.4 68 8.8 47.8
20:30 1016 30 846 24.98 14.6 58.2 68 8.7 47.7
20:35 1016 30 846 24.98 14.5 58 69 8.9 47.9
20:40 1016 30 846 24.98 14.2 57.6 70 9 48.2
20:45 1017 30.03 846 24.98 14.1 57.4 71 9 48.2
20:50 1017 30.03 846 24.98 14.1 57.3 72 9.2 48.5
20:55 1017 30.03 846 24.98 14 57.2 72 9.1 48.5
21:00 1017 30.03 846 24.98 13.9 57 74 9.3 48.7
21:05 1017 30.03 846 24.98 13.8 56.8 74 9.2 48.5
21:10 1017 30.03 846 24.98 13.7 56.7 74 9.1 48.4
21:15 1017 30.03 846 24.98 13.6 56.6 74 9.2 48.5
21:20 1017 30.03 846 24.98 13.5 56.3 75 9.2 48.6
21:25 1017 30.03 847 25.01 13.3 56 76 9.2 48.5
21:30 1018 30.06 847 25.01 13.2 55.7 78 9.4 48.9
21:35 1018 30.06 847 25.01 13 55.4 79 9.5 49
21:40 1017 30.03 847 25.01 12.9 55.2 79 9.4 48.9
21:45 1018 30.06 847 25.01 12.9 55.2 77 8.9 48.1
21:50 1018 30.06 847 25.01 12.9 55.3 75 8.5 47.4
21:55 1017 30.03 847 25.01 12.9 55.3 75 8.6 47.6
22:00 1018 30.06 847 25.01 12.8 55.1 77 9 48.1
22:05 1018 30.06 847 25.01 12.8 55 76 8.8 47.8
22:10 1018 30.06 847 25.01 12.7 54.9 75 8.4 47.1
22:15 1018 30.06 847 25.01 12.7 54.8 75 8.4 47.1
22:20 1018 30.06 847 25.01 12.6 54.6 75 8.2 46.7
22:25 1018 30.06 847 25.01 12.5 54.4 73 7.8 46
22:30 1018 30.06 847 25.01 12.3 54.1 74 7.8 46
22:35 1018 30.06 847 25.01 12.2 53.9 73 7.4 45.4
22:40 1018 30.06 847 25.01 12.2 53.9 68 6.6 43.8
22:45 1018 30.06 847 25.01 12.4 54.2 68 6.6 43.9
22:50 1018 30.06 847 25.01 12.5 54.4 67 6.6 43.8
22:55 1018 30.06 847 25.01 12.2 54 69 6.8 44.3
23:00 1018 30.06 847 25.01 12 53.5 71 7 44.5
23:05 1018 30.06 847 25.01 11.8 53.2 71 6.7 44
23:10 1018 30.06 847 25.01 11.7 53 70 6.4 43.6
23:15 1018 30.06 847 25.01 11.6 52.9 69 6.2 43.2
23:20 1018 30.06 847 25.01 11.4 52.5 69 6 42.9
23:25 1018 30.06 847 25.01 11.5 52.7 68 5.8 42.4
23:30 1018 30.06 847 25.01 11.6 52.9 67 5.7 42.2
23:35 1018 30.06 848 25.04 11.6 52.8 68 5.9 42.6
23:40 1018 30.06 848 25.04 11.4 52.6 71 6.5 43.7
23:45 1018 30.06 848 25.04 11.2 52.2 73 6.6 43.8
23:50 1019 30.09 848 25.04 11.2 52.1 74 6.7 44.1
23:55 1019 30.09 848 25.04 11.1 52 75 6.9 44.3
24:00 1019 30.09 848 25.04 11 51.9 74 6.7 44